sensor_id;sensor_type;location;lat;lon;timestamp;pressure;altitude;pressure_sealevel;temperature;humidity
32324;BME280;25666;44.350;9.222;2024-02-21T00:00:49;102554.22;;;7.93;100.00
32324;BME280;25666;44.350;9.222;2024-02-21T00:03:15;102551.16;;;7.95;100.00
32324;BME280;25666;44.350;9.222;2024-02-21T00:05:40;102547.13;;;7.77;100.00
32324;BME280;25666;44.350;9.222;2024-02-21T00:08:06;102548.25;;;7.76;100.00
32324;BME280;25666;44.350;9.222;2024-02-21T00:10:32;102541.81;;;7.81;100.00
32324;BME280;25666;44.350;9.222;2024-02-21T00:12:58;102537.09;;;7.81;100.00
32324;BME280;25666;44.350;9.222;2024-02-21T00:15:25;102536.84;;;7.83;100.00
32324;BME280;25666;44.350;9.222;2024-02-21T00:17:51;102537.41;;;7.80;100.00
32324;BME280;25666;44.350;9.222;2024-02-21T00:20:16;102541.56;;;7.77;100.00
32324;BME280;25666;44.350;9.222;2024-02-21T00:22:43;102534.78;;;7.60;100.00
32324;BME280;25666;44.350;9.222;2024-02-21T00:25:09;102538.06;;;7.67;100.00
32324;BME280;25666;44.350;9.222;2024-02-21T00:27:35;102534.78;;;7.60;100.00
32324;BME280;25666;44.350;9.222;2024-02-21T00:30:01;102540.59;;;7.58;100.00
32324;BME280;25666;44.350;9.222;2024-02-21T00:32:26;102542.22;;;7.64;100.00
32324;BME280;25666;44.350;9.222;2024-02-21T00:34:51;102538.38;;;7.60;100.00
32324;BME280;25666;44.350;9.222;2024-02-21T00:37:17;102534.50;;;7.61;100.00
32324;BME280;25666;44.350;9.222;2024-02-21T00:39:43;102532.25;;;7.63;100.00
32324;BME280;25666;44.350;9.222;2024-02-21T00:42:08;102530.91;;;7.61;100.00
32324;BME280;25666;44.350;9.222;2024-02-21T00:44:34;102538.06;;;7.62;100.00
32324;BME280;25666;44.350;9.222;2024-02-21T00:47:00;102530.66;;;7.52;100.00
32324;BME280;25666;44.350;9.222;2024-02-21T00:49:25;102527.88;;;7.57;100.00
32324;BME280;25666;44.350;9.222;2024-02-21T00:51:51;102526.78;;;7.53;100.00
32324;BME280;25666;44.350;9.222;2024-02-21T00:54:16;102521.75;;;7.55;100.00
32324;BME280;25666;44.350;9.222;2024-02-21T00:56:43;102517.94;;;7.51;100.00
32324;BME280;25666;44.350;9.222;2024-02-21T00:59:08;102518.50;;;7.48;100.00
32324;BME280;25666;44.350;9.222;2024-02-21T01:01:34;102516.56;;;7.48;100.00
32324;BME280;25666;44.350;9.222;2024-02-21T01:03:59;102518.25;;;7.44;100.00
32324;BME280;25666;44.350;9.222;2024-02-21T01:06:25;102513.00;;;7.38;100.00
32324;BME280;25666;44.350;9.222;2024-02-21T01:08:51;102515.78;;;7.38;100.00
32324;BME280;25666;44.350;9.222;2024-02-21T01:11:16;102519.47;;;7.23;100.00
32324;BME280;25666;44.350;9.222;2024-02-21T01:13:42;102519.22;;;7.20;100.00
32324;BME280;25666;44.350;9.222;2024-02-21T01:16:08;102515.09;;;7.12;100.00
32324;BME280;25666;44.350;9.222;2024-02-21T01:18:34;102510.34;;;7.18;100.00
32324;BME280;25666;44.350;9.222;2024-02-21T01:20:59;102516.19;;;7.16;100.00
32324;BME280;25666;44.350;9.222;2024-02-21T01:23:25;102510.13;;;7.09;100.00
32324;BME280;25666;44.350;9.222;2024-02-21T01:25:51;102500.72;;;7.10;100.00
32324;BME280;25666;44.350;9.222;2024-02-21T01:28:17;102514.63;;;6.90;100.00
32324;BME280;25666;44.350;9.222;2024-02-21T01:30:42;102510.44;;;6.97;100.00
32324;BME280;25666;44.350;9.222;2024-02-21T01:33:08;102508.22;;;6.99;100.00
32324;BME280;25666;44.350;9.222;2024-02-21T01:35:35;102512.91;;;6.99;100.00
32324;BME280;25666;44.350;9.222;2024-02-21T01:38:02;102514.66;;;6.80;100.00
32324;BME280;25666;44.350;9.222;2024-02-21T01:40:27;102519.69;;;6.73;100.00
32324;BME280;25666;44.350;9.222;2024-02-21T01:42:55;102523.28;;;6.68;100.00
32324;BME280;25666;44.350;9.222;2024-02-21T01:45:20;102520.44;;;6.93;100.00
32324;BME280;25666;44.350;9.222;2024-02-21T01:47:47;102518.19;;;7.00;100.00
32324;BME280;25666;44.350;9.222;2024-02-21T01:50:14;102523.16;;;6.98;100.00
32324;BME280;25666;44.350;9.222;2024-02-21T01:52:41;102536.19;;;6.98;100.00
32324;BME280;25666;44.350;9.222;2024-02-21T01:55:10;102533.13;;;6.99;100.00
32324;BME280;25666;44.350;9.222;2024-02-21T01:57:36;102521.75;;;7.06;100.00
32324;BME280;25666;44.350;9.222;2024-02-21T02:00:04;102528.16;;;7.02;100.00
32324;BME280;25666;44.350;9.222;2024-02-21T02:02:37;102522.34;;;6.93;100.00
32324;BME280;25666;44.350;9.222;2024-02-21T02:05:03;102520.66;;;7.07;100.00
32324;BME280;25666;44.350;9.222;2024-02-21T02:07:31;102515.66;;;7.09;100.00
32324;BME280;25666;44.350;9.222;2024-02-21T02:09:57;102522.28;;;7.08;100.00
32324;BME280;25666;44.350;9.222;2024-02-21T02:12:22;102513.72;;;7.10;100.00
32324;BME280;25666;44.350;9.222;2024-02-21T02:15:03;102526.97;;;7.18;100.00
32324;BME280;25666;44.350;9.222;2024-02-21T02:17:30;102528.09;;;7.12;100.00
32324;BME280;25666;44.350;9.222;2024-02-21T02:19:56;102527.53;;;7.15;100.00
32324;BME280;25666;44.350;9.222;2024-02-21T02:22:28;102534.19;;;7.09;100.00
32324;BME280;25666;44.350;9.222;2024-02-21T02:24:54;102528.09;;;7.12;100.00
32324;BME280;25666;44.350;9.222;2024-02-21T02:27:20;102528.94;;;7.12;100.00
32324;BME280;25666;44.350;9.222;2024-02-21T02:29:48;102534.78;;;7.06;100.00
32324;BME280;25666;44.350;9.222;2024-02-21T02:32:14;102539.78;;;6.98;100.00
32324;BME280;25666;44.350;9.222;2024-02-21T02:34:39;102529.22;;;7.06;100.00
32324;BME280;25666;44.350;9.222;2024-02-21T02:37:05;102537.84;;;7.04;100.00
32324;BME280;25666;44.350;9.222;2024-02-21T02:39:30;102530.41;;;6.94;100.00
32324;BME280;25666;44.350;9.222;2024-02-21T02:41:56;102533.16;;;6.94;100.00
32324;BME280;25666;44.350;9.222;2024-02-21T02:44:21;102533.69;;;6.96;100.00
32324;BME280;25666;44.350;9.222;2024-02-21T02:46:47;102536.16;;;7.03;100.00
32324;BME280;25666;44.350;9.222;2024-02-21T02:49:12;102535.91;;;7.05;100.00
32324;BME280;25666;44.350;9.222;2024-02-21T02:51:44;102540.09;;;6.92;100.00
32324;BME280;25666;44.350;9.222;2024-02-21T02:54:11;102534.84;;;6.90;100.00
32324;BME280;25666;44.350;9.222;2024-02-21T02:56:37;102534.28;;;6.88;100.00
32324;BME280;25666;44.350;9.222;2024-02-21T02:59:03;102525.13;;;6.93;100.00
32324;BME280;25666;44.350;9.222;2024-02-21T03:01:28;102532.06;;;6.90;100.00
32324;BME280;25666;44.350;9.222;2024-02-21T03:03:54;102535.41;;;6.87;100.00
32324;BME280;25666;44.350;9.222;2024-02-21T03:06:20;102540.63;;;6.94;100.00
32324;BME280;25666;44.350;9.222;2024-02-21T03:08:45;102538.41;;;7.01;100.00
32324;BME280;25666;44.350;9.222;2024-02-21T03:11:11;102542.59;;;6.88;100.00
32324;BME280;25666;44.350;9.222;2024-02-21T03:13:37;102539.31;;;6.71;100.00
32324;BME280;25666;44.350;9.222;2024-02-21T03:16:02;102538.16;;;6.87;100.00
32324;BME280;25666;44.350;9.222;2024-02-21T03:18:28;102540.13;;;6.82;100.00
32324;BME280;25666;44.350;9.222;2024-02-21T03:20:53;102540.72;;;6.69;100.00
32324;BME280;25666;44.350;9.222;2024-02-21T03:23:19;102542.97;;;6.57;100.00
32324;BME280;25666;44.350;9.222;2024-02-21T03:25:45;102545.97;;;6.70;100.00
32324;BME280;25666;44.350;9.222;2024-02-21T03:28:11;102547.66;;;6.56;100.00
32324;BME280;25666;44.350;9.222;2024-02-21T03:30:36;102543.44;;;6.74;100.00
32324;BME280;25666;44.350;9.222;2024-02-21T03:33:02;102551.19;;;6.77;100.00
32324;BME280;25666;44.350;9.222;2024-02-21T03:35:28;102544.28;;;6.74;100.00
32324;BME280;25666;44.350;9.222;2024-02-21T03:37:53;102544.59;;;6.73;100.00
32324;BME280;25666;44.350;9.222;2024-02-21T03:40:19;102546.50;;;6.72;100.00
32324;BME280;25666;44.350;9.222;2024-02-21T03:42:45;102541.78;;;6.78;100.00
32324;BME280;25666;44.350;9.222;2024-02-21T03:45:10;102541.53;;;6.79;100.00
32324;BME280;25666;44.350;9.222;2024-02-21T03:47:36;102534.59;;;6.77;100.00
32324;BME280;25666;44.350;9.222;2024-02-21T03:50:02;102539.56;;;6.85;100.00
32324;BME280;25666;44.350;9.222;2024-02-21T03:52:27;102545.38;;;6.83;100.00
32324;BME280;25666;44.350;9.222;2024-02-21T03:54:53;102546.84;;;6.51;100.00
32324;BME280;25666;44.350;9.222;2024-02-21T03:57:20;102547.94;;;6.50;100.00
32324;BME280;25666;44.350;9.222;2024-02-21T03:59:46;102551.81;;;6.48;100.00
32324;BME280;25666;44.350;9.222;2024-02-21T04:02:14;102542.44;;;6.29;100.00
32324;BME280;25666;44.350;9.222;2024-02-21T04:04:43;102552.38;;;6.30;100.00
32324;BME280;25666;44.350;9.222;2024-02-21T04:07:12;102552.13;;;6.22;100.00
32324;BME280;25666;44.350;9.222;2024-02-21T04:09:37;102549.09;;;6.28;100.00
32324;BME280;25666;44.350;9.222;2024-02-21T04:12:03;102542.69;;;6.33;100.00
32324;BME280;25666;44.350;9.222;2024-02-21T04:14:29;102550.16;;;6.37;100.00
32324;BME280;25666;44.350;9.222;2024-02-21T04:16:54;102549.91;;;6.39;100.00
32324;BME280;25666;44.350;9.222;2024-02-21T04:19:20;102544.63;;;6.47;100.00
32324;BME280;25666;44.350;9.222;2024-02-21T04:21:45;102551.81;;;6.54;100.00
32324;BME280;25666;44.350;9.222;2024-02-21T04:24:11;102550.41;;;6.56;100.00
32324;BME280;25666;44.350;9.222;2024-02-21T04:26:36;102549.59;;;6.56;100.00
32324;BME280;25666;44.350;9.222;2024-02-21T04:29:02;102558.16;;;6.69;100.00
32324;BME280;25666;44.350;9.222;2024-02-21T04:31:27;102552.31;;;6.71;100.00
32324;BME280;25666;44.350;9.222;2024-02-21T04:33:53;102552.38;;;6.45;100.00
32324;BME280;25666;44.350;9.222;2024-02-21T04:36:19;102562.88;;;6.43;100.00
32324;BME280;25666;44.350;9.222;2024-02-21T04:38:45;102573.69;;;6.35;100.00
32324;BME280;25666;44.350;9.222;2024-02-21T04:41:10;102571.75;;;6.20;100.00
32324;BME280;25666;44.350;9.222;2024-02-21T04:43:36;102572.28;;;5.97;100.00
32324;BME280;25666;44.350;9.222;2024-02-21T04:46:01;102575.59;;;5.89;100.00
32324;BME280;25666;44.350;9.222;2024-02-21T04:48:27;102570.09;;;6.04;100.00
32324;BME280;25666;44.350;9.222;2024-02-21T04:50:52;102559.31;;;6.13;100.00
32324;BME280;25666;44.350;9.222;2024-02-21T04:53:18;102565.66;;;6.28;100.00
32324;BME280;25666;44.350;9.222;2024-02-21T04:55:43;102564.28;;;6.21;100.00
32324;BME280;25666;44.350;9.222;2024-02-21T04:58:09;102569.00;;;6.25;100.00
32324;BME280;25666;44.350;9.222;2024-02-21T05:00:35;102564.28;;;6.26;100.00
32324;BME280;25666;44.350;9.222;2024-02-21T05:03:00;102568.44;;;6.23;100.00
32324;BME280;25666;44.350;9.222;2024-02-21T05:05:26;102578.38;;;6.24;100.00
32324;BME280;25666;44.350;9.222;2024-02-21T05:07:51;102577.28;;;6.25;100.00
32324;BME280;25666;44.350;9.222;2024-02-21T05:10:17;102585.00;;;6.08;100.00
32324;BME280;25666;44.350;9.222;2024-02-21T05:12:44;102569.84;;;6.11;100.00
32324;BME280;25666;44.350;9.222;2024-02-21T05:15:10;102574.50;;;6.15;100.00
32324;BME280;25666;44.350;9.222;2024-02-21T05:17:35;102575.06;;;6.17;100.00
32324;BME280;25666;44.350;9.222;2024-02-21T05:20:01;102568.69;;;6.27;100.00
32324;BME280;25666;44.350;9.222;2024-02-21T05:22:27;102575.59;;;6.39;100.00
32324;BME280;25666;44.350;9.222;2024-02-21T05:24:52;102570.91;;;6.45;100.00
32324;BME280;25666;44.350;9.222;2024-02-21T05:27:18;102572.84;;;6.24;100.00
32324;BME280;25666;44.350;9.222;2024-02-21T05:29:43;102569.78;;;6.36;100.00
32324;BME280;25666;44.350;9.222;2024-02-21T05:32:09;102571.19;;;6.28;100.00
32324;BME280;25666;44.350;9.222;2024-02-21T05:34:35;102573.66;;;6.30;100.00
32324;BME280;25666;44.350;9.222;2024-02-21T05:37:01;102569.25;;;6.44;100.00
32324;BME280;25666;44.350;9.222;2024-02-21T05:39:26;102567.84;;;6.52;100.00
32324;BME280;25666;44.350;9.222;2024-02-21T05:41:52;102568.13;;;6.50;100.00
32324;BME280;25666;44.350;9.222;2024-02-21T05:44:18;102558.72;;;6.36;100.00
32324;BME280;25666;44.350;9.222;2024-02-21T05:46:44;102573.41;;;6.41;100.00
32324;BME280;25666;44.350;9.222;2024-02-21T05:49:13;102581.16;;;6.29;100.00
32324;BME280;25666;44.350;9.222;2024-02-21T05:51:39;102579.19;;;6.05;100.00
32324;BME280;25666;44.350;9.222;2024-02-21T05:54:04;102581.72;;;6.01;100.00
32324;BME280;25666;44.350;9.222;2024-02-21T05:56:30;102581.16;;;6.09;100.00
32324;BME280;25666;44.350;9.222;2024-02-21T05:58:55;102582.53;;;6.07;100.00
32324;BME280;25666;44.350;9.222;2024-02-21T06:01:22;102585.28;;;6.02;100.00
32324;BME280;25666;44.350;9.222;2024-02-21T06:03:48;102591.09;;;6.20;100.00
32324;BME280;25666;44.350;9.222;2024-02-21T06:06:13;102583.94;;;6.19;100.00
32324;BME280;25666;44.350;9.222;2024-02-21T06:08:40;102580.31;;;6.19;100.00
32324;BME280;25666;44.350;9.222;2024-02-21T06:11:05;102585.59;;;6.25;100.00
32324;BME280;25666;44.350;9.222;2024-02-21T06:13:31;102572.84;;;6.24;100.00
32324;BME280;25666;44.350;9.222;2024-02-21T06:15:57;102584.72;;;6.30;100.00
32324;BME280;25666;44.350;9.222;2024-02-21T06:18:22;102587.25;;;6.26;100.00
32324;BME280;25666;44.350;9.222;2024-02-21T06:20:48;102588.06;;;6.22;100.00
32324;BME280;25666;44.350;9.222;2024-02-21T06:23:15;102589.19;;;6.11;100.00
32324;BME280;25666;44.350;9.222;2024-02-21T06:25:42;102590.53;;;6.18;100.00
32324;BME280;25666;44.350;9.222;2024-02-21T06:28:08;102593.88;;;6.25;100.00
32324;BME280;25666;44.350;9.222;2024-02-21T06:30:33;102600.22;;;6.21;100.00
32324;BME280;25666;44.350;9.222;2024-02-21T06:32:59;102604.66;;;6.42;100.00
32324;BME280;25666;44.350;9.222;2024-02-21T06:35:25;102596.63;;;6.45;100.00
32324;BME280;25666;44.350;9.222;2024-02-21T06:37:51;102596.06;;;6.64;100.00
32324;BME280;25666;44.350;9.222;2024-02-21T06:40:26;102596.91;;;6.59;100.00
32324;BME280;25666;44.350;9.222;2024-02-21T06:42:51;102602.09;;;6.91;100.00
32324;BME280;25666;44.350;9.222;2024-02-21T06:45:17;102601.00;;;6.87;100.00
32324;BME280;25666;44.350;9.222;2024-02-21T06:47:42;102598.44;;;7.11;100.00
32324;BME280;25666;44.350;9.222;2024-02-21T06:50:09;102597.34;;;7.07;100.00
32324;BME280;25666;44.350;9.222;2024-02-21T06:52:38;102599.53;;;7.20;100.00
32324;BME280;25666;44.350;9.222;2024-02-21T06:55:03;102601.19;;;7.16;100.00
32324;BME280;25666;44.350;9.222;2024-02-21T06:57:29;102603.41;;;7.19;100.00
32324;BME280;25666;44.350;9.222;2024-02-21T06:59:57;102605.59;;;7.22;100.00
32324;BME280;25666;44.350;9.222;2024-02-21T07:02:23;102604.78;;;7.11;100.00
32324;BME280;25666;44.350;9.222;2024-02-21T07:04:48;102615.28;;;7.29;100.00
32324;BME280;25666;44.350;9.222;2024-02-21T07:07:14;102606.09;;;7.34;100.00
32324;BME280;25666;44.350;9.222;2024-02-21T07:09:40;102606.41;;;7.32;100.00
32324;BME280;25666;44.350;9.222;2024-02-21T07:12:06;102602.75;;;7.42;100.00
32324;BME280;25666;44.350;9.222;2024-02-21T07:14:36;102619.94;;;7.34;100.00
32324;BME280;25666;44.350;9.222;2024-02-21T07:17:01;102620.53;;;7.36;100.00
32324;BME280;25666;44.350;9.222;2024-02-21T07:19:27;102627.16;;;7.35;100.00
32324;BME280;25666;44.350;9.222;2024-02-21T07:21:52;102626.84;;;7.41;100.00
32324;BME280;25666;44.350;9.222;2024-02-21T07:24:18;102624.88;;;7.47;100.00
32324;BME280;25666;44.350;9.222;2024-02-21T07:26:44;102623.47;;;7.49;100.00
32324;BME280;25666;44.350;9.222;2024-02-21T07:29:09;102626.69;;;7.72;100.00
32324;BME280;25666;44.350;9.222;2024-02-21T07:31:41;102638.53;;;7.87;100.00
32324;BME280;25666;44.350;9.222;2024-02-21T07:34:07;102637.38;;;7.93;100.00
32324;BME280;25666;44.350;9.222;2024-02-21T07:36:32;102643.94;;;8.13;100.00
32324;BME280;25666;44.350;9.222;2024-02-21T07:38:58;102644.13;;;8.21;100.00
32324;BME280;25666;44.350;9.222;2024-02-21T07:41:25;102639.66;;;8.30;100.00
32324;BME280;25666;44.350;9.222;2024-02-21T07:43:57;102649.56;;;8.41;100.00
32324;BME280;25666;44.350;9.222;2024-02-21T07:46:23;102649.78;;;8.50;100.00
32324;BME280;25666;44.350;9.222;2024-02-21T07:48:49;102645.50;;;8.63;100.00
32324;BME280;25666;44.350;9.222;2024-02-21T07:51:14;102648.47;;;8.71;100.00
32324;BME280;25666;44.350;9.222;2024-02-21T07:53:43;102647.78;;;8.89;100.00
32324;BME280;25666;44.350;9.222;2024-02-21T07:56:14;102651.25;;;9.00;100.00
32324;BME280;25666;44.350;9.222;2024-02-21T07:58:40;102655.97;;;8.99;100.00
32324;BME280;25666;44.350;9.222;2024-02-21T08:01:06;102654.28;;;9.03;100.00
32324;BME280;25666;44.350;9.222;2024-02-21T08:03:31;102663.59;;;9.18;100.00
32324;BME280;25666;44.350;9.222;2024-02-21T08:05:57;102661.50;;;9.28;100.00
32324;BME280;25666;44.350;9.222;2024-02-21T08:08:23;102662.84;;;9.31;100.00
32324;BME280;25666;44.350;9.222;2024-02-21T08:10:51;102655.84;;;9.38;100.00
32324;BME280;25666;44.350;9.222;2024-02-21T08:13:17;102652.94;;;9.48;100.00
32324;BME280;25666;44.350;9.222;2024-02-21T08:15:43;102656.94;;;9.61;100.00
32324;BME280;25666;44.350;9.222;2024-02-21T08:18:08;102657.13;;;9.69;100.00
32324;BME280;25666;44.350;9.222;2024-02-21T08:20:34;102657.03;;;9.75;100.00
32324;BME280;25666;44.350;9.222;2024-02-21T08:23:00;102654.97;;;9.85;100.00
32324;BME280;25666;44.350;9.222;2024-02-21T08:25:27;102653.63;;;10.01;100.00
32324;BME280;25666;44.350;9.222;2024-02-21T08:27:56;102654.84;;;10.14;100.00
32324;BME280;25666;44.350;9.222;2024-02-21T08:30:22;102661.16;;;10.19;100.00
32324;BME280;25666;44.350;9.222;2024-02-21T08:32:48;102660.47;;;10.28;100.00
32324;BME280;25666;44.350;9.222;2024-02-21T08:35:13;102660.31;;;10.38;100.00
32324;BME280;25666;44.350;9.222;2024-02-21T08:37:39;102657.38;;;10.48;100.00
32324;BME280;25666;44.350;9.222;2024-02-21T08:40:05;102666.59;;;10.62;100.00
32324;BME280;25666;44.350;9.222;2024-02-21T08:42:38;102655.63;;;10.70;100.00
32324;BME280;25666;44.350;9.222;2024-02-21T08:45:05;102657.00;;;10.87;100.00
32324;BME280;25666;44.350;9.222;2024-02-21T08:47:30;102648.16;;;10.98;100.00
32324;BME280;25666;44.350;9.222;2024-02-21T08:49:56;102652.09;;;11.11;100.00
32324;BME280;25666;44.350;9.222;2024-02-21T08:52:21;102647.88;;;11.27;100.00
32324;BME280;25666;44.350;9.222;2024-02-21T08:54:47;102656.97;;;11.33;100.00
32324;BME280;25666;44.350;9.222;2024-02-21T08:57:12;102645.28;;;11.44;100.00
32324;BME280;25666;44.350;9.222;2024-02-21T08:59:39;102645.38;;;11.53;100.00
32324;BME280;25666;44.350;9.222;2024-02-21T09:02:05;102630.59;;;11.66;100.00
32324;BME280;25666;44.350;9.222;2024-02-21T09:04:32;102635.25;;;11.84;100.00
32324;BME280;25666;44.350;9.222;2024-02-21T09:06:59;102633.00;;;11.86;100.00
32324;BME280;25666;44.350;9.222;2024-02-21T09:09:24;102634.31;;;11.89;100.00
32324;BME280;25666;44.350;9.222;2024-02-21T09:11:50;102621.69;;;11.91;100.00
32324;BME280;25666;44.350;9.222;2024-02-21T09:14:16;102634.38;;;12.11;100.00
32324;BME280;25666;44.350;9.222;2024-02-21T09:16:41;102629.00;;;12.14;100.00
32324;BME280;25666;44.350;9.222;2024-02-21T09:19:07;102623.97;;;12.25;100.00
32324;BME280;25666;44.350;9.222;2024-02-21T09:21:36;102631.22;;;12.48;100.00
32324;BME280;25666;44.350;9.222;2024-02-21T09:24:01;102627.09;;;12.68;100.00
32324;BME280;25666;44.350;9.222;2024-02-21T09:26:28;102623.56;;;12.84;100.00
32324;BME280;25666;44.350;9.222;2024-02-21T09:28:53;102623.09;;;12.91;100.00
32324;BME280;25666;44.350;9.222;2024-02-21T09:31:19;102621.13;;;13.14;100.00
32324;BME280;25666;44.350;9.222;2024-02-21T09:33:45;102617.88;;;13.20;100.00
32324;BME280;25666;44.350;9.222;2024-02-21T09:36:10;102623.47;;;13.29;100.00
32324;BME280;25666;44.350;9.222;2024-02-21T09:38:36;102618.09;;;13.41;100.00
32324;BME280;25666;44.350;9.222;2024-02-21T09:41:18;102618.31;;;13.53;100.00
32324;BME280;25666;44.350;9.222;2024-02-21T09:43:49;102624.75;;;13.62;100.00
32324;BME280;25666;44.350;9.222;2024-02-21T09:46:17;102619.81;;;13.59;100.00
32324;BME280;25666;44.350;9.222;2024-02-21T09:49:13;102622.09;;;13.66;100.00
32324;BME280;25666;44.350;9.222;2024-02-21T09:51:41;102612.91;;;13.65;100.00
32324;BME280;25666;44.350;9.222;2024-02-21T09:54:09;102615.66;;;13.57;100.00
32324;BME280;25666;44.350;9.222;2024-02-21T09:56:34;102612.84;;;13.48;100.00
32324;BME280;25666;44.350;9.222;2024-02-21T09:59:01;102610.88;;;13.49;100.00
32324;BME280;25666;44.350;9.222;2024-02-21T10:01:31;102619.75;;;13.42;100.00
32324;BME280;25666;44.350;9.222;2024-02-21T10:03:57;102623.03;;;13.44;100.00
32324;BME280;25666;44.350;9.222;2024-02-21T10:06:22;102623.59;;;13.63;100.00
32324;BME280;25666;44.350;9.222;2024-02-21T10:08:52;102621.97;;;13.62;100.00
32324;BME280;25666;44.350;9.222;2024-02-21T10:11:25;102627.72;;;13.66;100.00
32324;BME280;25666;44.350;9.222;2024-02-21T10:13:51;102624.06;;;13.57;100.00
32324;BME280;25666;44.350;9.222;2024-02-21T10:16:17;102625.75;;;13.66;100.00
32324;BME280;25666;44.350;9.222;2024-02-21T10:18:42;102623.59;;;13.63;100.00
32324;BME280;25666;44.350;9.222;2024-02-21T10:21:08;102632.97;;;13.59;100.00
32324;BME280;25666;44.350;9.222;2024-02-21T10:23:49;102628.88;;;13.65;100.00
32324;BME280;25666;44.350;9.222;2024-02-21T10:26:17;102631.50;;;13.70;100.00
32324;BME280;25666;44.350;9.222;2024-02-21T10:28:43;102633.00;;;13.76;100.00
32324;BME280;25666;44.350;9.222;2024-02-21T10:31:30;102634.31;;;13.78;100.00
32324;BME280;25666;44.350;9.222;2024-02-21T10:36:21;102636.63;;;13.76;100.00
32324;BME280;25666;44.350;9.222;2024-02-21T10:38:47;102633.03;;;13.84;100.00
32324;BME280;25666;44.350;9.222;2024-02-21T10:41:14;102632.03;;;13.89;100.00
32324;BME280;25666;44.350;9.222;2024-02-21T10:43:40;102635.84;;;13.84;100.00
32324;BME280;25666;44.350;9.222;2024-02-21T10:46:07;102626.09;;;13.82;100.00
32324;BME280;25666;44.350;9.222;2024-02-21T10:55:09;102631.88;;;13.85;100.00
32324;BME280;25666;44.350;9.222;2024-02-21T10:57:37;102628.41;;;13.88;100.00
32324;BME280;25666;44.350;9.222;2024-02-21T11:00:04;102630.25;;;13.84;100.00
32324;BME280;25666;44.350;9.222;2024-02-21T11:02:33;102625.13;;;13.78;100.00
32324;BME280;25666;44.350;9.222;2024-02-21T11:05:01;102620.00;;;13.80;100.00
32324;BME280;25666;44.350;9.222;2024-02-21T11:07:29;102620.38;;;13.87;100.00
32324;BME280;25666;44.350;9.222;2024-02-21T11:09:57;102615.06;;;13.94;100.00
32324;BME280;25666;44.350;9.222;2024-02-21T11:12:25;102613.13;;;14.03;100.00
32324;BME280;25666;44.350;9.222;2024-02-21T11:14:51;102609.16;;;13.95;100.00
32324;BME280;25666;44.350;9.222;2024-02-21T11:17:17;102602.59;;;14.00;100.00
32324;BME280;25666;44.350;9.222;2024-02-21T11:19:43;102600.44;;;14.06;100.00
32324;BME280;25666;44.350;9.222;2024-02-21T11:22:19;102595.00;;;14.01;100.00
32324;BME280;25666;44.350;9.222;2024-02-21T11:24:47;102588.25;;;14.02;100.00
32324;BME280;25666;44.350;9.222;2024-02-21T11:27:19;102581.34;;;13.99;100.00
32324;BME280;25666;44.350;9.222;2024-02-21T11:29:55;102576.41;;;14.05;100.00
32324;BME280;25666;44.350;9.222;2024-02-21T11:32:21;102581.31;;;14.16;100.00
32324;BME280;25666;44.350;9.222;2024-02-21T11:37:20;102569.81;;;14.18;100.00
32324;BME280;25666;44.350;9.222;2024-02-21T11:39:45;102566.50;;;14.24;100.00
32324;BME280;25666;44.350;9.222;2024-02-21T11:42:11;102564.69;;;14.20;100.00
32324;BME280;25666;44.350;9.222;2024-02-21T11:44:38;102561.75;;;14.33;100.00
32324;BME280;25666;44.350;9.222;2024-02-21T11:47:05;102569.31;;;14.33;100.00
32324;BME280;25666;44.350;9.222;2024-02-21T11:49:36;102556.63;;;14.27;100.00
32324;BME280;25666;44.350;9.222;2024-02-21T11:52:03;102556.44;;;14.32;100.00
32324;BME280;25666;44.350;9.222;2024-02-21T11:54:33;102553.00;;;14.26;100.00
32324;BME280;25666;44.350;9.222;2024-02-21T11:56:59;102555.47;;;14.36;100.00
32324;BME280;25666;44.350;9.222;2024-02-21T11:59:25;102558.13;;;14.33;100.00
32324;BME280;25666;44.350;9.222;2024-02-21T12:01:52;102546.91;;;14.24;100.00
32324;BME280;25666;44.350;9.222;2024-02-21T12:04:19;102545.25;;;14.23;100.00
32324;BME280;25666;44.350;9.222;2024-02-21T12:06:46;102541.97;;;14.21;100.00
32324;BME280;25666;44.350;9.222;2024-02-21T12:09:15;102537.84;;;14.19;100.00
32324;BME280;25666;44.350;9.222;2024-02-21T12:11:44;102533.22;;;14.23;100.00
32324;BME280;25666;44.350;9.222;2024-02-21T12:14:10;102533.22;;;14.23;100.00
32324;BME280;25666;44.350;9.222;2024-02-21T12:16:36;102523.00;;;14.27;100.00
32324;BME280;25666;44.350;9.222;2024-02-21T12:19:05;102520.00;;;14.32;100.00
32324;BME280;25666;44.350;9.222;2024-02-21T12:21:32;102517.41;;;14.27;100.00
32324;BME280;25666;44.350;9.222;2024-02-21T12:23:59;102516.09;;;14.24;100.00
32324;BME280;25666;44.350;9.222;2024-02-21T12:26:25;102516.91;;;14.25;100.00
32324;BME280;25666;44.350;9.222;2024-02-21T12:28:53;102508.84;;;14.23;100.00
32324;BME280;25666;44.350;9.222;2024-02-21T12:31:20;102507.19;;;14.14;100.00
32324;BME280;25666;44.350;9.222;2024-02-21T12:33:46;102504.88;;;14.24;100.00
32324;BME280;25666;44.350;9.222;2024-02-21T12:36:12;102499.59;;;14.23;100.00
32324;BME280;25666;44.350;9.222;2024-02-21T12:38:38;102500.59;;;14.10;100.00
32324;BME280;25666;44.350;9.222;2024-02-21T12:41:03;102497.66;;;14.15;100.00
32324;BME280;25666;44.350;9.222;2024-02-21T12:43:29;102491.38;;;14.18;100.00
32324;BME280;25666;44.350;9.222;2024-02-21T12:45:54;102483.66;;;14.15;100.00
32324;BME280;25666;44.350;9.222;2024-02-21T12:48:20;102482.31;;;14.21;100.00
32324;BME280;25666;44.350;9.222;2024-02-21T12:50:50;102480.00;;;14.23;100.00
32324;BME280;25666;44.350;9.222;2024-02-21T12:53:19;102474.59;;;14.18;100.00
32324;BME280;25666;44.350;9.222;2024-02-21T12:55:47;102476.41;;;14.14;100.00